sensor_id;sensor_type;location;lat;lon;timestamp;P1;durP1;ratioP1;P2;durP2;ratioP2
21503;SDS011;10913;51.992;9.228;2022-10-31T00:01:01;10.30;;;4.13;;
21503;SDS011;10913;51.992;9.228;2022-10-31T00:03:33;7.13;;;4.22;;
21503;SDS011;10913;51.992;9.228;2022-10-31T00:05:59;8.38;;;4.00;;
21503;SDS011;10913;51.992;9.228;2022-10-31T00:08:26;7.20;;;4.18;;
21503;SDS011;10913;51.992;9.228;2022-10-31T00:10:51;7.57;;;4.10;;
21503;SDS011;10913;51.992;9.228;2022-10-31T00:13:17;7.32;;;4.20;;
21503;SDS011;10913;51.992;9.228;2022-10-31T00:15:42;8.25;;;3.90;;
21503;SDS011;10913;51.992;9.228;2022-10-31T00:18:08;6.68;;;4.32;;
21503;SDS011;10913;51.992;9.228;2022-10-31T00:20:34;7.05;;;4.05;;
21503;SDS011;10913;51.992;9.228;2022-10-31T00:23:00;6.88;;;4.28;;
21503;SDS011;10913;51.992;9.228;2022-10-31T00:25:27;8.00;;;4.40;;
21503;SDS011;10913;51.992;9.228;2022-10-31T00:27:53;7.38;;;4.18;;
21503;SDS011;10913;51.992;9.228;2022-10-31T00:30:19;7.97;;;3.95;;
21503;SDS011;10913;51.992;9.228;2022-10-31T00:32:44;8.30;;;4.00;;
21503;SDS011;10913;51.992;9.228;2022-10-31T00:35:10;6.13;;;3.90;;
21503;SDS011;10913;51.992;9.228;2022-10-31T00:37:35;6.85;;;4.10;;
21503;SDS011;10913;51.992;9.228;2022-10-31T00:40:01;6.50;;;4.05;;
21503;SDS011;10913;51.992;9.228;2022-10-31T00:42:26;6.82;;;4.20;;
21503;SDS011;10913;51.992;9.228;2022-10-31T00:44:51;9.95;;;4.38;;
21503;SDS011;10913;51.992;9.228;2022-10-31T00:47:17;7.03;;;4.07;;
21503;SDS011;10913;51.992;9.228;2022-10-31T00:49:42;6.97;;;4.32;;
21503;SDS011;10913;51.992;9.228;2022-10-31T00:52:07;9.15;;;4.53;;
21503;SDS011;10913;51.992;9.228;2022-10-31T00:54:33;7.95;;;4.43;;
21503;SDS011;10913;51.992;9.228;2022-10-31T00:56:58;7.47;;;4.57;;
21503;SDS011;10913;51.992;9.228;2022-10-31T00:59:24;8.02;;;4.28;;
21503;SDS011;10913;51.992;9.228;2022-10-31T01:01:49;6.53;;;4.15;;
21503;SDS011;10913;51.992;9.228;2022-10-31T01:04:14;7.28;;;4.93;;
21503;SDS011;10913;51.992;9.228;2022-10-31T01:06:40;8.10;;;4.20;;
21503;SDS011;10913;51.992;9.228;2022-10-31T01:09:05;6.38;;;4.35;;
21503;SDS011;10913;51.992;9.228;2022-10-31T01:11:31;6.95;;;4.50;;
21503;SDS011;10913;51.992;9.228;2022-10-31T01:13:56;6.85;;;4.43;;
21503;SDS011;10913;51.992;9.228;2022-10-31T01:16:22;8.30;;;4.63;;
21503;SDS011;10913;51.992;9.228;2022-10-31T01:18:50;8.98;;;4.60;;
21503;SDS011;10913;51.992;9.228;2022-10-31T01:21:17;7.20;;;4.57;;
21503;SDS011;10913;51.992;9.228;2022-10-31T01:23:45;9.07;;;4.70;;
21503;SDS011;10913;51.992;9.228;2022-10-31T01:26:18;7.25;;;4.65;;
21503;SDS011;10913;51.992;9.228;2022-10-31T01:31:13;7.50;;;4.93;;
21503;SDS011;10913;51.992;9.228;2022-10-31T01:33:40;8.82;;;5.10;;
21503;SDS011;10913;51.992;9.228;2022-10-31T01:36:17;8.65;;;5.30;;
21503;SDS011;10913;51.992;9.228;2022-10-31T01:38:42;6.75;;;4.75;;
21503;SDS011;10913;51.992;9.228;2022-10-31T01:41:08;9.18;;;4.90;;
21503;SDS011;10913;51.992;9.228;2022-10-31T01:43:46;11.45;;;5.13;;
21503;SDS011;10913;51.992;9.228;2022-10-31T01:46:15;8.32;;;5.20;;
21503;SDS011;10913;51.992;9.228;2022-10-31T01:48:46;7.40;;;4.88;;
21503;SDS011;10913;51.992;9.228;2022-10-31T01:51:12;9.90;;;4.93;;
21503;SDS011;10913;51.992;9.228;2022-10-31T01:53:40;7.35;;;4.40;;
21503;SDS011;10913;51.992;9.228;2022-10-31T01:56:08;7.82;;;4.85;;
21503;SDS011;10913;51.992;9.228;2022-10-31T01:58:34;7.32;;;4.65;;
21503;SDS011;10913;51.992;9.228;2022-10-31T02:01:00;7.32;;;4.57;;
21503;SDS011;10913;51.992;9.228;2022-10-31T02:03:26;8.43;;;4.63;;
21503;SDS011;10913;51.992;9.228;2022-10-31T02:05:54;7.57;;;4.78;;
21503;SDS011;10913;51.992;9.228;2022-10-31T02:08:31;7.93;;;4.93;;
21503;SDS011;10913;51.992;9.228;2022-10-31T02:10:59;11.23;;;5.25;;
21503;SDS011;10913;51.992;9.228;2022-10-31T02:13:26;9.63;;;5.45;;
21503;SDS011;10913;51.992;9.228;2022-10-31T02:15:55;7.40;;;5.10;;
21503;SDS011;10913;51.992;9.228;2022-10-31T02:18:22;8.27;;;4.95;;
21503;SDS011;10913;51.992;9.228;2022-10-31T02:21:36;6.68;;;4.80;;
21503;SDS011;10913;51.992;9.228;2022-10-31T02:26:51;8.75;;;4.80;;
21503;SDS011;10913;51.992;9.228;2022-10-31T02:33:05;6.93;;;5.22;;
21503;SDS011;10913;51.992;9.228;2022-10-31T02:41:14;9.75;;;5.90;;
21503;SDS011;10913;51.992;9.228;2022-10-31T02:52:17;8.35;;;6.07;;
21503;SDS011;10913;51.992;9.228;2022-10-31T02:54:46;10.02;;;5.90;;
21503;SDS011;10913;51.992;9.228;2022-10-31T02:57:12;9.35;;;6.03;;
21503;SDS011;10913;51.992;9.228;2022-10-31T02:59:41;9.57;;;5.75;;
21503;SDS011;10913;51.992;9.228;2022-10-31T03:07:41;8.45;;;5.70;;
21503;SDS011;10913;51.992;9.228;2022-10-31T03:13:48;7.40;;;5.50;;
21503;SDS011;10913;51.992;9.228;2022-10-31T03:18:53;9.63;;;6.63;;
21503;SDS011;10913;51.992;9.228;2022-10-31T03:21:42;8.60;;;6.32;;
21503;SDS011;10913;51.992;9.228;2022-10-31T03:24:21;11.50;;;7.53;;
21503;SDS011;10913;51.992;9.228;2022-10-31T03:26:51;11.05;;;6.90;;
21503;SDS011;10913;51.992;9.228;2022-10-31T03:29:21;12.05;;;7.63;;
21503;SDS011;10913;51.992;9.228;2022-10-31T03:34:21;15.20;;;9.43;;
21503;SDS011;10913;51.992;9.228;2022-10-31T03:36:50;16.65;;;9.27;;
21503;SDS011;10913;51.992;9.228;2022-10-31T03:39:19;12.57;;;8.73;;
21503;SDS011;10913;51.992;9.228;2022-10-31T03:41:49;14.65;;;9.50;;
21503;SDS011;10913;51.992;9.228;2022-10-31T03:44:20;14.70;;;9.60;;
21503;SDS011;10913;51.992;9.228;2022-10-31T03:46:48;19.52;;;11.15;;
21503;SDS011;10913;51.992;9.228;2022-10-31T03:49:13;15.30;;;9.98;;
21503;SDS011;10913;51.992;9.228;2022-10-31T03:54:34;14.73;;;9.02;;
21503;SDS011;10913;51.992;9.228;2022-10-31T03:59:53;13.68;;;9.45;;
21503;SDS011;10913;51.992;9.228;2022-10-31T04:02:32;16.90;;;11.15;;
21503;SDS011;10913;51.992;9.228;2022-10-31T04:05:00;17.65;;;10.23;;
21503;SDS011;10913;51.992;9.228;2022-10-31T04:07:29;15.45;;;9.05;;
21503;SDS011;10913;51.992;9.228;2022-10-31T04:09:58;13.93;;;8.50;;
21503;SDS011;10913;51.992;9.228;2022-10-31T04:12:27;14.10;;;8.80;;
21503;SDS011;10913;51.992;9.228;2022-10-31T04:14:56;11.38;;;7.60;;
21503;SDS011;10913;51.992;9.228;2022-10-31T04:17:23;12.43;;;8.50;;
21503;SDS011;10913;51.992;9.228;2022-10-31T04:19:51;12.23;;;7.90;;
21503;SDS011;10913;51.992;9.228;2022-10-31T04:22:16;11.85;;;7.57;;
21503;SDS011;10913;51.992;9.228;2022-10-31T04:24:41;14.70;;;8.13;;
21503;SDS011;10913;51.992;9.228;2022-10-31T04:27:07;12.82;;;8.23;;
21503;SDS011;10913;51.992;9.228;2022-10-31T04:29:32;12.48;;;7.55;;
21503;SDS011;10913;51.992;9.228;2022-10-31T04:31:58;11.90;;;8.45;;
21503;SDS011;10913;51.992;9.228;2022-10-31T04:34:23;12.25;;;8.60;;
21503;SDS011;10913;51.992;9.228;2022-10-31T04:36:48;16.65;;;10.55;;
21503;SDS011;10913;51.992;9.228;2022-10-31T04:39:14;15.90;;;10.88;;
21503;SDS011;10913;51.992;9.228;2022-10-31T04:41:42;17.90;;;11.75;;
21503;SDS011;10913;51.992;9.228;2022-10-31T04:44:08;19.27;;;11.25;;
21503;SDS011;10913;51.992;9.228;2022-10-31T04:46:33;16.95;;;10.70;;
21503;SDS011;10913;51.992;9.228;2022-10-31T04:48:58;17.23;;;11.40;;
21503;SDS011;10913;51.992;9.228;2022-10-31T04:51:24;17.50;;;10.73;;
21503;SDS011;10913;51.992;9.228;2022-10-31T04:53:49;16.58;;;11.25;;
21503;SDS011;10913;51.992;9.228;2022-10-31T04:56:14;16.92;;;10.45;;
21503;SDS011;10913;51.992;9.228;2022-10-31T04:58:40;17.55;;;10.73;;
21503;SDS011;10913;51.992;9.228;2022-10-31T05:01:05;19.15;;;11.50;;
21503;SDS011;10913;51.992;9.228;2022-10-31T05:03:30;16.00;;;11.10;;
21503;SDS011;10913;51.992;9.228;2022-10-31T05:05:56;19.08;;;11.50;;
21503;SDS011;10913;51.992;9.228;2022-10-31T05:08:21;18.70;;;10.80;;
21503;SDS011;10913;51.992;9.228;2022-10-31T05:10:46;17.83;;;10.73;;
21503;SDS011;10913;51.992;9.228;2022-10-31T05:13:12;14.73;;;10.93;;
21503;SDS011;10913;51.992;9.228;2022-10-31T05:15:37;18.58;;;10.82;;
21503;SDS011;10913;51.992;9.228;2022-10-31T05:18:03;15.35;;;9.90;;
21503;SDS011;10913;51.992;9.228;2022-10-31T05:20:29;14.13;;;9.80;;
21503;SDS011;10913;51.992;9.228;2022-10-31T05:22:55;18.73;;;10.32;;
21503;SDS011;10913;51.992;9.228;2022-10-31T05:25:23;14.43;;;9.73;;
21503;SDS011;10913;51.992;9.228;2022-10-31T05:27:51;15.48;;;10.02;;
21503;SDS011;10913;51.992;9.228;2022-10-31T05:30:22;14.57;;;9.85;;
21503;SDS011;10913;51.992;9.228;2022-10-31T05:32:49;13.25;;;9.48;;
21503;SDS011;10913;51.992;9.228;2022-10-31T05:35:17;13.73;;;9.80;;
21503;SDS011;10913;51.992;9.228;2022-10-31T05:37:47;13.77;;;9.75;;
21503;SDS011;10913;51.992;9.228;2022-10-31T05:40:13;13.07;;;9.20;;
21503;SDS011;10913;51.992;9.228;2022-10-31T05:42:39;17.88;;;10.27;;
21503;SDS011;10913;51.992;9.228;2022-10-31T05:45:06;13.25;;;10.02;;
21503;SDS011;10913;51.992;9.228;2022-10-31T05:47:36;15.50;;;9.45;;
21503;SDS011;10913;51.992;9.228;2022-10-31T05:50:02;14.57;;;9.50;;
21503;SDS011;10913;51.992;9.228;2022-10-31T05:52:28;14.55;;;9.38;;
21503;SDS011;10913;51.992;9.228;2022-10-31T05:54:53;15.35;;;10.10;;
21503;SDS011;10913;51.992;9.228;2022-10-31T05:57:18;17.00;;;10.80;;
21503;SDS011;10913;51.992;9.228;2022-10-31T05:59:44;14.48;;;10.85;;
21503;SDS011;10913;51.992;9.228;2022-10-31T06:02:09;16.67;;;10.55;;
21503;SDS011;10913;51.992;9.228;2022-10-31T06:04:35;15.10;;;10.50;;
21503;SDS011;10913;51.992;9.228;2022-10-31T06:07:00;15.52;;;10.70;;
21503;SDS011;10913;51.992;9.228;2022-10-31T06:09:26;16.63;;;10.30;;
21503;SDS011;10913;51.992;9.228;2022-10-31T06:11:51;16.05;;;10.25;;
21503;SDS011;10913;51.992;9.228;2022-10-31T06:14:16;15.18;;;9.90;;
21503;SDS011;10913;51.992;9.228;2022-10-31T06:16:41;15.38;;;10.18;;
21503;SDS011;10913;51.992;9.228;2022-10-31T06:19:07;16.33;;;9.82;;
21503;SDS011;10913;51.992;9.228;2022-10-31T06:21:32;15.15;;;10.40;;
21503;SDS011;10913;51.992;9.228;2022-10-31T06:23:58;18.77;;;10.73;;
21503;SDS011;10913;51.992;9.228;2022-10-31T06:26:23;15.10;;;10.07;;
21503;SDS011;10913;51.992;9.228;2022-10-31T06:28:48;14.32;;;9.88;;
21503;SDS011;10913;51.992;9.228;2022-10-31T06:31:14;13.77;;;9.90;;
21503;SDS011;10913;51.992;9.228;2022-10-31T06:33:40;15.68;;;10.68;;
21503;SDS011;10913;51.992;9.228;2022-10-31T06:36:07;14.50;;;10.75;;
21503;SDS011;10913;51.992;9.228;2022-10-31T06:38:33;12.85;;;9.93;;
21503;SDS011;10913;51.992;9.228;2022-10-31T06:41:01;15.48;;;9.98;;
21503;SDS011;10913;51.992;9.228;2022-10-31T06:43:28;13.00;;;10.20;;
21503;SDS011;10913;51.992;9.228;2022-10-31T06:45:53;11.90;;;9.40;;
21503;SDS011;10913;51.992;9.228;2022-10-31T06:48:19;10.85;;;8.43;;
21503;SDS011;10913;51.992;9.228;2022-10-31T06:50:44;15.73;;;9.60;;
21503;SDS011;10913;51.992;9.228;2022-10-31T06:53:09;14.82;;;10.07;;
21503;SDS011;10913;51.992;9.228;2022-10-31T06:55:35;13.30;;;9.35;;
21503;SDS011;10913;51.992;9.228;2022-10-31T06:58:01;17.77;;;10.77;;
21503;SDS011;10913;51.992;9.228;2022-10-31T07:00:27;16.10;;;10.70;;
21503;SDS011;10913;51.992;9.228;2022-10-31T07:02:57;13.48;;;9.35;;
21503;SDS011;10913;51.992;9.228;2022-10-31T07:05:23;13.45;;;9.25;;
21503;SDS011;10913;51.992;9.228;2022-10-31T07:07:53;12.85;;;9.80;;
21503;SDS011;10913;51.992;9.228;2022-10-31T07:10:20;14.25;;;10.00;;
21503;SDS011;10913;51.992;9.228;2022-10-31T07:12:46;12.23;;;9.35;;
21503;SDS011;10913;51.992;9.228;2022-10-31T07:15:11;13.55;;;9.63;;
21503;SDS011;10913;51.992;9.228;2022-10-31T07:17:36;12.75;;;8.85;;
21503;SDS011;10913;51.992;9.228;2022-10-31T07:20:02;12.57;;;8.82;;
21503;SDS011;10913;51.992;9.228;2022-10-31T07:22:34;12.75;;;10.10;;
21503;SDS011;10913;51.992;9.228;2022-10-31T07:25:01;13.43;;;10.48;;
21503;SDS011;10913;51.992;9.228;2022-10-31T07:27:26;13.63;;;9.55;;
21503;SDS011;10913;51.992;9.228;2022-10-31T07:29:52;14.98;;;10.10;;
21503;SDS011;10913;51.992;9.228;2022-10-31T07:32:17;11.85;;;9.02;;
21503;SDS011;10913;51.992;9.228;2022-10-31T07:34:43;15.52;;;10.50;;
21503;SDS011;10913;51.992;9.228;2022-10-31T07:37:08;16.63;;;11.02;;
21503;SDS011;10913;51.992;9.228;2022-10-31T07:39:33;16.63;;;10.40;;
21503;SDS011;10913;51.992;9.228;2022-10-31T07:41:59;15.60;;;10.73;;
21503;SDS011;10913;51.992;9.228;2022-10-31T07:44:24;14.07;;;10.60;;
21503;SDS011;10913;51.992;9.228;2022-10-31T07:46:49;15.23;;;10.80;;
21503;SDS011;10913;51.992;9.228;2022-10-31T07:49:15;17.52;;;12.13;;
21503;SDS011;10913;51.992;9.228;2022-10-31T07:51:40;20.90;;;14.10;;
21503;SDS011;10913;51.992;9.228;2022-10-31T07:54:05;21.33;;;15.05;;
21503;SDS011;10913;51.992;9.228;2022-10-31T07:56:31;19.33;;;14.43;;
21503;SDS011;10913;51.992;9.228;2022-10-31T07:58:58;24.30;;;15.77;;
21503;SDS011;10913;51.992;9.228;2022-10-31T08:01:38;28.35;;;18.67;;
21503;SDS011;10913;51.992;9.228;2022-10-31T08:04:04;24.33;;;16.38;;
21503;SDS011;10913;51.992;9.228;2022-10-31T08:06:29;21.25;;;14.35;;
21503;SDS011;10913;51.992;9.228;2022-10-31T08:08:54;20.48;;;12.57;;
21503;SDS011;10913;51.992;9.228;2022-10-31T08:11:20;17.75;;;12.55;;
21503;SDS011;10913;51.992;9.228;2022-10-31T08:13:46;17.90;;;11.23;;
21503;SDS011;10913;51.992;9.228;2022-10-31T08:16:11;14.98;;;10.55;;
21503;SDS011;10913;51.992;9.228;2022-10-31T08:18:36;15.70;;;10.77;;
21503;SDS011;10913;51.992;9.228;2022-10-31T08:21:02;17.20;;;10.85;;
21503;SDS011;10913;51.992;9.228;2022-10-31T08:23:28;17.70;;;11.30;;
21503;SDS011;10913;51.992;9.228;2022-10-31T08:25:53;17.17;;;11.85;;
21503;SDS011;10913;51.992;9.228;2022-10-31T08:28:18;16.25;;;11.48;;
21503;SDS011;10913;51.992;9.228;2022-10-31T08:30:44;17.10;;;12.00;;
21503;SDS011;10913;51.992;9.228;2022-10-31T08:33:12;15.63;;;11.05;;
21503;SDS011;10913;51.992;9.228;2022-10-31T08:35:39;16.02;;;10.82;;
21503;SDS011;10913;51.992;9.228;2022-10-31T08:38:05;15.30;;;11.25;;
21503;SDS011;10913;51.992;9.228;2022-10-31T08:40:31;17.33;;;10.77;;
21503;SDS011;10913;51.992;9.228;2022-10-31T08:43:01;16.83;;;11.57;;
21503;SDS011;10913;51.992;9.228;2022-10-31T08:45:35;18.27;;;11.30;;
21503;SDS011;10913;51.992;9.228;2022-10-31T08:48:02;15.82;;;11.02;;
21503;SDS011;10913;51.992;9.228;2022-10-31T08:50:30;16.33;;;11.43;;
21503;SDS011;10913;51.992;9.228;2022-10-31T08:53:07;16.00;;;11.52;;
21503;SDS011;10913;51.992;9.228;2022-10-31T08:55:36;16.30;;;11.32;;
21503;SDS011;10913;51.992;9.228;2022-10-31T08:58:04;16.02;;;11.77;;
21503;SDS011;10913;51.992;9.228;2022-10-31T09:00:32;16.67;;;11.50;;
21503;SDS011;10913;51.992;9.228;2022-10-31T09:02:59;15.88;;;11.02;;
21503;SDS011;10913;51.992;9.228;2022-10-31T09:05:25;14.73;;;10.90;;
21503;SDS011;10913;51.992;9.228;2022-10-31T09:07:52;19.48;;;11.80;;
21503;SDS011;10913;51.992;9.228;2022-10-31T09:10:20;19.23;;;11.32;;
21503;SDS011;10913;51.992;9.228;2022-10-31T09:12:45;17.33;;;11.52;;
21503;SDS011;10913;51.992;9.228;2022-10-31T09:15:11;14.20;;;10.63;;
21503;SDS011;10913;51.992;9.228;2022-10-31T09:17:36;19.70;;;12.70;;
21503;SDS011;10913;51.992;9.228;2022-10-31T09:20:02;17.30;;;11.43;;
21503;SDS011;10913;51.992;9.228;2022-10-31T09:22:27;17.85;;;11.00;;
21503;SDS011;10913;51.992;9.228;2022-10-31T09:24:52;20.52;;;12.52;;
21503;SDS011;10913;51.992;9.228;2022-10-31T09:27:18;15.27;;;11.20;;
21503;SDS011;10913;51.992;9.228;2022-10-31T09:29:43;17.83;;;11.43;;
21503;SDS011;10913;51.992;9.228;2022-10-31T09:32:08;16.13;;;11.00;;
21503;SDS011;10913;51.992;9.228;2022-10-31T09:34:33;19.00;;;12.38;;
21503;SDS011;10913;51.992;9.228;2022-10-31T09:36:59;16.98;;;12.10;;
21503;SDS011;10913;51.992;9.228;2022-10-31T09:39:24;23.00;;;14.77;;
21503;SDS011;10913;51.992;9.228;2022-10-31T09:41:57;22.17;;;14.50;;
21503;SDS011;10913;51.992;9.228;2022-10-31T09:47:16;19.98;;;13.13;;
21503;SDS011;10913;51.992;9.228;2022-10-31T09:50:21;17.63;;;12.80;;
21503;SDS011;10913;51.992;9.228;2022-10-31T09:52:57;18.92;;;14.02;;
21503;SDS011;10913;51.992;9.228;2022-10-31T09:55:37;18.38;;;13.40;;
21503;SDS011;10913;51.992;9.228;2022-10-31T09:58:08;16.40;;;12.07;;
21503;SDS011;10913;51.992;9.228;2022-10-31T10:00:40;17.70;;;12.05;;
21503;SDS011;10913;51.992;9.228;2022-10-31T10:03:10;17.13;;;11.15;;
21503;SDS011;10913;51.992;9.228;2022-10-31T10:05:39;17.83;;;11.40;;
21503;SDS011;10913;51.992;9.228;2022-10-31T10:08:35;16.30;;;11.75;;
21503;SDS011;10913;51.992;9.228;2022-10-31T10:21:53;20.83;;;14.73;;
21503;SDS011;10913;51.992;9.228;2022-10-31T10:29:53;21.50;;;13.75;;
21503;SDS011;10913;51.992;9.228;2022-10-31T10:32:25;24.52;;;15.23;;
21503;SDS011;10913;51.992;9.228;2022-10-31T10:34:55;26.20;;;16.50;;
21503;SDS011;10913;51.992;9.228;2022-10-31T10:37:34;23.42;;;15.20;;
21503;SDS011;10913;51.992;9.228;2022-10-31T10:42:38;25.60;;;15.73;;
21503;SDS011;10913;51.992;9.228;2022-10-31T10:45:22;18.53;;;12.83;;
21503;SDS011;10913;51.992;9.228;2022-10-31T10:50:39;17.75;;;12.50;;
21503;SDS011;10913;51.992;9.228;2022-10-31T10:53:13;16.08;;;11.52;;
21503;SDS011;10913;51.992;9.228;2022-10-31T10:56:21;17.67;;;11.80;;
21503;SDS011;10913;51.992;9.228;2022-10-31T10:59:02;16.30;;;10.68;;
21503;SDS011;10913;51.992;9.228;2022-10-31T11:01:28;18.20;;;11.23;;
21503;SDS011;10913;51.992;9.228;2022-10-31T11:03:54;14.70;;;10.25;;
21503;SDS011;10913;51.992;9.228;2022-10-31T11:06:21;14.45;;;10.30;;
21503;SDS011;10913;51.992;9.228;2022-10-31T11:08:51;17.15;;;10.48;;
21503;SDS011;10913;51.992;9.228;2022-10-31T11:13:43;20.88;;;11.95;;
21503;SDS011;10913;51.992;9.228;2022-10-31T11:16:13;16.40;;;10.23;;
21503;SDS011;10913;51.992;9.228;2022-10-31T11:18:50;18.05;;;10.48;;
21503;SDS011;10913;51.992;9.228;2022-10-31T11:21:20;19.77;;;11.35;;
21503;SDS011;10913;51.992;9.228;2022-10-31T11:23:48;17.58;;;10.07;;
21503;SDS011;10913;51.992;9.228;2022-10-31T11:26:19;20.60;;;11.98;;
21503;SDS011;10913;51.992;9.228;2022-10-31T11:28:55;15.73;;;11.25;;
21503;SDS011;10913;51.992;9.228;2022-10-31T11:31:22;16.70;;;10.60;;
21503;SDS011;10913;51.992;9.228;2022-10-31T11:33:51;17.70;;;10.65;;
21503;SDS011;10913;51.992;9.228;2022-10-31T11:36:25;15.73;;;9.88;;
21503;SDS011;10913;51.992;9.228;2022-10-31T11:38:54;13.85;;;9.10;;
21503;SDS011;10913;51.992;9.228;2022-10-31T11:41:27;13.93;;;9.65;;
21503;SDS011;10913;51.992;9.228;2022-10-31T11:46:34;14.65;;;9.25;;
21503;SDS011;10913;51.992;9.228;2022-10-31T11:49:02;14.82;;;8.13;;
21503;SDS011;10913;51.992;9.228;2022-10-31T11:51:31;12.35;;;8.20;;
21503;SDS011;10913;51.992;9.228;2022-10-31T11:53:59;13.57;;;9.35;;
21503;SDS011;10913;51.992;9.228;2022-10-31T11:56:28;13.82;;;9.50;;
21503;SDS011;10913;51.992;9.228;2022-10-31T11:59:03;12.00;;;8.48;;
21503;SDS011;10913;51.992;9.228;2022-10-31T12:01:31;14.90;;;8.52;;
21503;SDS011;10913;51.992;9.228;2022-10-31T12:06:30;11.73;;;8.48;;
21503;SDS011;10913;51.992;9.228;2022-10-31T12:08:59;11.18;;;7.13;;
21503;SDS011;10913;51.992;9.228;2022-10-31T12:19:34;10.45;;;7.20;;
21503;SDS011;10913;51.992;9.228;2022-10-31T12:25:02;12.68;;;7.70;;
21503;SDS011;10913;51.992;9.228;2022-10-31T12:30:20;9.98;;;6.03;;
21503;SDS011;10913;51.992;9.228;2022-10-31T12:35:29;12.93;;;6.38;;
21503;SDS011;10913;51.992;9.228;2022-10-31T12:46:35;11.13;;;6.50;;
21503;SDS011;10913;51.992;9.228;2022-10-31T12:49:12;10.82;;;6.30;;
21503;SDS011;10913;51.992;9.228;2022-10-31T13:00:02;10.18;;;5.28;;
21503;SDS011;10913;51.992;9.228;2022-10-31T13:02:35;8.82;;;5.28;;
21503;SDS011;10913;51.992;9.228;2022-10-31T13:05:16;7.93;;;5.45;;
21503;SDS011;10913;51.992;9.228;2022-10-31T13:07:55;6.15;;;5.03;;
21503;SDS011;10913;51.992;9.228;2022-10-31T13:10:36;9.77;;;4.93;;
21503;SDS011;10913;51.992;9.228;2022-10-31T13:15:54;7.80;;;5.22;;
21503;SDS011;10913;51.992;9.228;2022-10-31T13:18:29;7.78;;;5.32;;
21503;SDS011;10913;51.992;9.228;2022-10-31T13:20:58;8.73;;;4.65;;
21503;SDS011;10913;51.992;9.228;2022-10-31T13:23:29;7.97;;;4.70;;
21503;SDS011;10913;51.992;9.228;2022-10-31T13:25:58;6.28;;;4.97;;
21503;SDS011;10913;51.992;9.228;2022-10-31T13:28:51;7.10;;;6.05;;
21503;SDS011;10913;51.992;9.228;2022-10-31T13:31:19;9.50;;;6.03;;
21503;SDS011;10913;51.992;9.228;2022-10-31T13:33:50;12.43;;;9.07;;
21503;SDS011;10913;51.992;9.228;2022-10-31T13:41:46;7.53;;;4.50;;
21503;SDS011;10913;51.992;9.228;2022-10-31T13:46:45;7.38;;;5.13;;
21503;SDS011;10913;51.992;9.228;2022-10-31T13:54:36;8.57;;;5.30;;
21503;SDS011;10913;51.992;9.228;2022-10-31T14:00:06;8.90;;;4.57;;
21503;SDS011;10913;51.992;9.228;2022-10-31T14:02:35;8.82;;;4.95;;
21503;SDS011;10913;51.992;9.228;2022-10-31T14:07:51;7.80;;;5.13;;
21503;SDS011;10913;51.992;9.228;2022-10-31T14:13:02;9.45;;;5.35;;
21503;SDS011;10913;51.992;9.228;2022-10-31T14:15:52;5.78;;;4.95;;
21503;SDS011;10913;51.992;9.228;2022-10-31T14:18:25;7.78;;;4.90;;
21503;SDS011;10913;51.992;9.228;2022-10-31T14:20:56;6.07;;;4.80;;
21503;SDS011;10913;51.992;9.228;2022-10-31T14:25:53;6.95;;;4.78;;
21503;SDS011;10913;51.992;9.228;2022-10-31T14:28:20;6.55;;;4.80;;
21503;SDS011;10913;51.992;9.228;2022-10-31T14:30:56;9.32;;;4.97;;
21503;SDS011;10913;51.992;9.228;2022-10-31T14:33:24;7.97;;;5.40;;
21503;SDS011;10913;51.992;9.228;2022-10-31T14:36:09;9.38;;;5.78;;
21503;SDS011;10913;51.992;9.228;2022-10-31T14:39:01;6.85;;;4.82;;
21503;SDS011;10913;51.992;9.228;2022-10-31T14:41:56;9.15;;;6.10;;
21503;SDS011;10913;51.992;9.228;2022-10-31T14:52:35;8.00;;;5.28;;
21503;SDS011;10913;51.992;9.228;2022-10-31T14:55:02;9.63;;;5.60;;
21503;SDS011;10913;51.992;9.228;2022-10-31T14:57:35;9.68;;;6.18;;
21503;SDS011;10913;51.992;9.228;2022-10-31T15:00:07;10.32;;;6.60;;
21503;SDS011;10913;51.992;9.228;2022-10-31T15:02:43;11.68;;;6.50;;
21503;SDS011;10913;51.992;9.228;2022-10-31T15:05:16;7.80;;;5.90;;
21503;SDS011;10913;51.992;9.228;2022-10-31T15:07:53;11.38;;;6.97;;
21503;SDS011;10913;51.992;9.228;2022-10-31T15:10:28;9.45;;;6.95;;
21503;SDS011;10913;51.992;9.228;2022-10-31T15:13:19;13.73;;;8.93;;
21503;SDS011;10913;51.992;9.228;2022-10-31T15:15:52;17.23;;;9.45;;
21503;SDS011;10913;51.992;9.228;2022-10-31T15:18:20;15.70;;;9.55;;
21503;SDS011;10913;51.992;9.228;2022-10-31T15:20:49;16.23;;;9.30;;
21503;SDS011;10913;51.992;9.228;2022-10-31T15:23:16;14.40;;;10.32;;
21503;SDS011;10913;51.992;9.228;2022-10-31T15:26:03;16.10;;;9.80;;
21503;SDS011;10913;51.992;9.228;2022-10-31T15:28:30;18.30;;;10.60;;
21503;SDS011;10913;51.992;9.228;2022-10-31T15:30:57;18.63;;;11.57;;
21503;SDS011;10913;51.992;9.228;2022-10-31T15:33:24;20.35;;;12.93;;
21503;SDS011;10913;51.992;9.228;2022-10-31T15:35:56;19.15;;;11.60;;
21503;SDS011;10913;51.992;9.228;2022-10-31T15:38:23;22.50;;;12.57;;
21503;SDS011;10913;51.992;9.228;2022-10-31T15:41:19;21.45;;;12.65;;
21503;SDS011;10913;51.992;9.228;2022-10-31T15:44:12;18.25;;;11.45;;
21503;SDS011;10913;51.992;9.228;2022-10-31T15:46:58;23.10;;;13.20;;
21503;SDS011;10913;51.992;9.228;2022-10-31T15:49:39;23.65;;;14.02;;
21503;SDS011;10913;51.992;9.228;2022-10-31T15:54:52;24.13;;;12.88;;
21503;SDS011;10913;51.992;9.228;2022-10-31T15:57:21;21.98;;;13.25;;
21503;SDS011;10913;51.992;9.228;2022-10-31T15:59:48;19.30;;;13.00;;
21503;SDS011;10913;51.992;9.228;2022-10-31T16:02:18;20.15;;;12.68;;
21503;SDS011;10913;51.992;9.228;2022-10-31T16:04:50;24.08;;;15.68;;
21503;SDS011;10913;51.992;9.228;2022-10-31T16:07:20;21.20;;;14.82;;
21503;SDS011;10913;51.992;9.228;2022-10-31T16:09:57;21.98;;;14.73;;
21503;SDS011;10913;51.992;9.228;2022-10-31T16:12:31;24.15;;;16.42;;
21503;SDS011;10913;51.992;9.228;2022-10-31T16:15:00;25.92;;;15.77;;
21503;SDS011;10913;51.992;9.228;2022-10-31T16:17:26;21.40;;;13.60;;
21503;SDS011;10913;51.992;9.228;2022-10-31T16:22:31;26.30;;;13.95;;
21503;SDS011;10913;51.992;9.228;2022-10-31T16:27:36;23.25;;;14.02;;
21503;SDS011;10913;51.992;9.228;2022-10-31T16:30:25;23.88;;;14.20;;
21503;SDS011;10913;51.992;9.228;2022-10-31T16:33:02;22.75;;;12.77;;
21503;SDS011;10913;51.992;9.228;2022-10-31T16:37:57;24.77;;;14.70;;
21503;SDS011;10913;51.992;9.228;2022-10-31T16:40:23;23.10;;;13.38;;
21503;SDS011;10913;51.992;9.228;2022-10-31T16:42:49;25.50;;;14.95;;
21503;SDS011;10913;51.992;9.228;2022-10-31T16:45:22;22.63;;;15.82;;
21503;SDS011;10913;51.992;9.228;2022-10-31T16:47:49;25.40;;;15.05;;
21503;SDS011;10913;51.992;9.228;2022-10-31T16:50:19;20.48;;;13.52;;
21503;SDS011;10913;51.992;9.228;2022-10-31T16:52:49;20.70;;;13.40;;
21503;SDS011;10913;51.992;9.228;2022-10-31T16:55:15;23.88;;;12.50;;
21503;SDS011;10913;51.992;9.228;2022-10-31T16:57:43;23.73;;;14.55;;
21503;SDS011;10913;51.992;9.228;2022-10-31T17:00:12;21.20;;;13.05;;
21503;SDS011;10913;51.992;9.228;2022-10-31T17:02:40;22.48;;;14.70;;
21503;SDS011;10913;51.992;9.228;2022-10-31T17:05:08;19.13;;;13.35;;
21503;SDS011;10913;51.992;9.228;2022-10-31T17:07:36;22.20;;;13.50;;
21503;SDS011;10913;51.992;9.228;2022-10-31T17:10:01;21.35;;;14.02;;
21503;SDS011;10913;51.992;9.228;2022-10-31T17:12:27;20.55;;;14.93;;
21503;SDS011;10913;51.992;9.228;2022-10-31T17:14:52;18.90;;;12.98;;
21503;SDS011;10913;51.992;9.228;2022-10-31T17:17:18;24.10;;;14.02;;